Terminal Aerodrome Forecast
Issued by NWS

Home | Current Version | Previous Version | Text Only | Print | Product List | Glossary Off
Versions: 1 2 3 4 5 6 7 8 9 10 11 12 13 14 15 16 17 18 19

000
FTUS43 KGRB 191224 AAA
TAFMTW
TAF AMD
KMTW 191224Z 1912/2012 28006KT 1SM BR OVC004
      TEMPO 1913/1914 6SM BR SCT006
     FM191400 27008KT P6SM FEW050 SCT120
     FM200200 23004KT P6SM FEW120
     FM200900 23004KT 3SM BR SKC=

USA.gov is the U.S. government's official web portal to all federal, state and local government web resources and services.